Time;durP1;ratioP1;P1;durP2;ratioP2;P2;SDS_P1;SDS_P2;PMS_P1;PMS_P2;Temp;Humidity;BMP_temperature;BMP_pressure;BME280_temperature;BME280_humidity;BME280_pressure;Samples;Min_cycle;Max_cycle;Signal;HPM_P1;HPM_P2
2023/09/16 00:00:58;;;;;;;6.97;4.90;;;15.70;99.90;;;;;;5019680;28;20184;-53
2023/09/16 00:03:23;;;;;;;5.83;4.83;;;15.60;99.90;;;;;;4995756;28;20192;-52
2023/09/16 00:05:49;;;;;;;7.80;5.60;;;15.60;99.90;;;;;;4999461;28;20189;-52
2023/09/16 00:08:14;;;;;;;6.00;4.77;;;15.50;99.90;;;;;;4997229;28;20192;-52
2023/09/16 00:10:40;;;;;;;5.70;5.07;;;15.50;99.90;;;;;;5001063;28;20633;-53
2023/09/16 00:13:06;;;;;;;7.70;5.10;;;15.50;99.90;;;;;;4998494;28;20192;-53
2023/09/16 00:15:32;;;;;;;5.47;4.87;;;15.60;99.90;;;;;;4997592;28;20216;-53
2023/09/16 00:17:57;;;;;;;5.97;5.10;;;15.60;99.90;;;;;;5000982;28;20721;-52
2023/09/16 00:20:25;;;;;;;5.77;4.73;;;15.60;99.90;;;;;;5005151;28;20191;-52
2023/09/16 00:22:51;;;;;;;6.20;5.03;;;15.70;99.90;;;;;;5006167;28;20639;-53
2023/09/16 00:25:17;;;;;;;5.90;5.13;;;15.60;99.90;;;;;;5005655;28;20448;-54
2023/09/16 00:27:42;;;;;;;9.30;5.30;;;15.60;99.90;;;;;;5005653;28;20224;-52
2023/09/16 00:30:08;;;;;;;6.50;5.60;;;15.60;99.90;;;;;;4999500;28;20246;-54
2023/09/16 00:32:34;;;;;;;6.07;4.83;;;15.40;99.90;;;;;;5000354;28;20525;-53
2023/09/16 00:35:00;;;;;;;5.00;4.50;;;15.40;99.90;;;;;;5003284;28;20474;-53
2023/09/16 00:37:26;;;;;;;6.27;5.67;;;15.30;1.00;;;;;;4998958;28;20203;-53
2023/09/16 00:39:51;;;;;;;6.40;5.30;;;15.40;1.00;;;;;;4999716;28;20448;-52
2023/09/16 00:42:18;;;;;;;7.63;5.00;;;15.30;99.90;;;;;;5001831;28;20193;-53
2023/09/16 00:44:43;;;;;;;6.57;5.87;;;15.40;1.00;;;;;;5002401;28;20658;-53
2023/09/16 00:47:09;;;;;;;6.43;4.80;;;15.40;99.90;;;;;;4999441;28;20447;-53
2023/09/16 00:49:35;;;;;;;5.63;5.10;;;15.40;1.00;;;;;;4999991;28;20242;-52
2023/09/16 00:52:02;;;;;;;5.90;4.80;;;15.40;1.00;;;;;;4999420;28;20614;-52
2023/09/16 00:54:28;;;;;;;7.10;5.20;;;15.40;1.00;;;;;;5003278;28;20235;-53
2023/09/16 00:56:56;;;;;;;7.23;5.40;;;15.50;99.90;;;;;;5000456;28;20804;-53
2023/09/16 00:59:23;;;;;;;5.93;5.20;;;15.40;1.00;;;;;;4999307;28;20443;-51
2023/09/16 01:01:50;;;;;;;7.47;5.33;;;15.50;1.00;;;;;;5002845;28;20491;-52
2023/09/16 01:04:16;;;;;;;6.17;5.10;;;15.50;99.90;;;;;;5006891;28;20848;-52
2023/09/16 01:06:46;;;;;;;13.33;5.17;;;15.50;99.90;;;;;;5000118;28;20449;-52
2023/09/16 01:09:15;;;;;;;6.70;5.17;;;15.40;99.90;;;;;;4999079;28;20443;-53
2023/09/16 01:11:41;;;;;;;7.10;5.50;;;15.40;99.90;;;;;;4998695;28;20534;-53
2023/09/16 01:14:10;;;;;;;5.90;5.30;;;15.30;99.90;;;;;;4999072;28;21051;-53
2023/09/16 01:16:57;;;;;;;10.70;5.70;;;15.20;1.00;;;;;;5000618;28;20199;-52
2023/09/16 01:19:32;;;;;;;8.53;5.47;;;15.10;1.00;;;;;;5006523;28;20447;-52
2023/09/16 01:21:59;;;;;;;9.73;5.47;;;15.00;12.70;;;;;;4999016;28;20491;-51
2023/09/16 01:24:24;;;;;;;6.10;5.50;;;15.20;99.90;;;;;;4998492;28;20447;-53
2023/09/16 01:26:50;;;;;;;7.57;5.23;;;15.20;1.00;;;;;;4999721;28;20448;-51
2023/09/16 01:29:18;;;;;;;5.97;5.30;;;15.30;1.00;;;;;;5004528;28;20671;-53
2023/09/16 01:31:45;;;;;;;5.90;5.27;;;15.30;1.00;;;;;;5001911;28;20225;-53
2023/09/16 01:34:27;;;;;;;7.90;5.90;;;15.30;1.00;;;;;;5003188;28;20491;-53
2023/09/16 01:36:57;;;;;;;8.20;6.50;;;15.30;1.00;;;;;;5001751;28;20447;-53
2023/09/16 01:39:24;;;;;;;6.87;6.20;;;15.40;21.10;;;;;;4998867;28;20457;-53
2023/09/16 01:41:52;;;;;;;6.53;5.83;;;15.50;1.00;;;;;;5001543;28;20467;-53
2023/09/16 01:44:17;;;;;;;8.53;5.40;;;15.40;1.00;;;;;;5001006;28;20433;-53
2023/09/16 01:46:43;;;;;;;7.80;7.00;;;15.40;1.00;;;;;;4998443;28;20782;-53
2023/09/16 01:49:09;;;;;;;5.97;5.30;;;15.40;1.00;;;;;;4999055;28;20255;-54
2023/09/16 01:51:34;;;;;;;6.97;5.77;;;15.40;1.00;;;;;;4998295;28;20660;-51
2023/09/16 01:54:00;;;;;;;9.00;6.17;;;15.40;1.00;;;;;;5000378;28;20576;-53
2023/09/16 01:56:25;;;;;;;7.30;6.00;;;15.30;1.00;;;;;;5001022;28;20528;-54
2023/09/16 01:58:51;;;;;;;7.90;5.93;;;15.20;9.10;;;;;;4997876;28;20625;-54
2023/09/16 02:01:17;;;;;;;8.20;6.77;;;15.20;1.00;;;;;;5002421;28;20951;-51
2023/09/16 02:03:42;;;;;;;7.47;5.80;;;15.20;37.70;;;;;;5000735;28;20199;-54
2023/09/16 02:06:08;;;;;;;8.03;6.07;;;15.10;99.90;;;;;;5000042;28;20185;-53
2023/09/16 02:08:34;;;;;;;7.40;6.37;;;15.10;40.40;;;;;;4998482;28;20196;-53
2023/09/16 02:11:00;;;;;;;8.90;6.30;;;15.10;99.90;;;;;;4999957;28;20327;-53
2023/09/16 02:13:25;;;;;;;8.87;7.13;;;15.10;99.90;;;;;;4998296;28;20470;-52
2023/09/16 02:15:51;;;;;;;7.73;6.20;;;15.10;1.00;;;;;;4998476;28;20688;-52
2023/09/16 02:18:17;;;;;;;12.23;7.57;;;15.10;28.20;;;;;;5003715;28;20233;-52
2023/09/16 02:20:43;;;;;;;9.17;7.30;;;15.00;1.00;;;;;;5007976;28;20314;-53
2023/09/16 02:23:08;;;;;;;6.67;5.93;;;15.00;99.90;;;;;;4998187;28;20578;-53
2023/09/16 02:25:34;;;;;;;7.00;5.93;;;15.00;1.00;;;;;;5005670;28;20191;-52
2023/09/16 02:28:01;;;;;;;8.13;6.03;;;15.10;99.90;;;;;;5004014;28;20228;-52
2023/09/16 02:30:27;;;;;;;6.63;5.73;;;15.20;1.00;;;;;;4999993;28;20448;-53
2023/09/16 02:32:52;;;;;;;8.13;6.87;;;15.20;1.00;;;;;;5001260;28;20820;-53
2023/09/16 02:35:18;;;;;;;7.73;5.97;;;15.10;99.90;;;;;;5003909;28;20211;-52
2023/09/16 02:37:43;;;;;;;8.40;7.07;;;15.00;99.90;;;;;;5003487;28;20245;-52
2023/09/16 02:40:09;;;;;;;7.50;6.40;;;15.00;99.90;;;;;;5003528;28;20261;-52
2023/09/16 02:42:35;;;;;;;10.57;6.47;;;15.00;25.70;;;;;;5001587;28;20202;-54
2023/09/16 02:45:01;;;;;;;7.20;6.50;;;15.00;49.00;;;;;;4999054;28;20202;-52
2023/09/16 02:47:26;;;;;;;6.87;6.17;;;15.00;99.90;;;;;;5003814;28;20549;-52
2023/09/16 02:49:52;;;;;;;8.10;6.90;;;15.00;24.00;;;;;;4999709;28;20277;-52
2023/09/16 02:52:20;;;;;;;8.40;7.40;;;14.90;99.90;;;;;;4998827;28;20227;-52
2023/09/16 02:54:45;;;;;;;7.20;6.50;;;14.80;99.90;;;;;;4997978;28;20227;-52
2023/09/16 02:57:11;;;;;;;8.37;6.03;;;14.80;1.00;;;;;;4998532;28;20479;-53
2023/09/16 02:59:37;;;;;;;8.20;6.70;;;14.80;1.00;;;;;;5000895;28;20244;-52
2023/09/16 03:02:03;;;;;;;9.70;6.93;;;14.70;1.00;;;;;;5000419;28;20674;-52
2023/09/16 03:04:28;;;;;;;9.33;7.40;;;14.70;1.00;;;;;;5002185;28;20266;-52
2023/09/16 03:06:54;;;;;;;7.30;6.40;;;14.70;55.30;;;;;;5000827;28;20881;-52
2023/09/16 03:09:19;;;;;;;8.90;6.80;;;14.70;99.90;;;;;;5005978;28;20198;-52
2023/09/16 03:11:45;;;;;;;7.50;6.80;;;14.70;1.00;;;;;;5002443;28;20327;-53
2023/09/16 03:14:11;;;;;;;9.50;7.67;;;14.70;1.00;;;;;;5001494;28;20251;-52
2023/09/16 03:16:37;;;;;;;7.77;6.70;;;14.70;1.00;;;;;;4998877;28;20470;-55
2023/09/16 03:19:06;;;;;;;8.77;7.27;;;14.70;1.00;;;;;;4996528;28;20626;-53
2023/09/16 03:21:31;;;;;;;7.57;6.17;;;14.70;1.00;;;;;;5001976;28;20676;-51
2023/09/16 03:23:57;;;;;;;8.27;7.27;;;14.70;99.90;;;;;;4997255;28;20493;-52
2023/09/16 03:26:23;;;;;;;9.60;7.87;;;14.60;1.00;;;;;;5002829;28;20196;-50
2023/09/16 03:28:48;;;;;;;14.70;8.10;;;14.60;99.90;;;;;;4997427;28;20646;-52
2023/09/16 03:31:15;;;;;;;10.70;7.97;;;14.60;1.00;;;;;;5002052;28;20561;-53
2023/09/16 03:33:41;;;;;;;8.10;7.20;;;14.50;1.00;;;;;;5006642;28;20192;-53
2023/09/16 03:36:07;;;;;;;8.97;8.10;;;14.50;1.00;;;;;;5005438;28;20466;-53
2023/09/16 03:38:34;;;;;;;8.50;6.90;;;14.50;99.90;;;;;;4997812;28;20443;-52
2023/09/16 03:41:00;;;;;;;9.07;6.47;;;14.50;99.90;;;;;;4996309;28;20530;-52
2023/09/16 03:43:27;;;;;;;9.00;7.50;;;14.50;1.00;;;;;;4997750;28;20454;-51
2023/09/16 03:45:53;;;;;;;8.73;6.90;;;14.50;1.00;;;;;;5005198;28;20188;-52
2023/09/16 03:48:19;;;;;;;10.83;8.00;;;14.50;99.90;;;;;;5000331;28;20516;-53
2023/09/16 03:50:45;;;;;;;7.73;6.97;;;14.50;90.40;;;;;;4997470;28;20954;-52
2023/09/16 03:53:10;;;;;;;8.23;7.00;;;14.50;99.90;;;;;;4999506;28;20655;-51
2023/09/16 03:55:36;;;;;;;8.73;7.83;;;14.50;99.90;;;;;;5004278;28;20570;-52
2023/09/16 03:58:02;;;;;;;10.13;7.57;;;14.50;1.00;;;;;;5001467;28;20273;-52
2023/09/16 04:00:29;;;;;;;8.60;7.70;;;14.40;1.00;;;;;;5001359;28;20181;-54
2023/09/16 04:02:54;;;;;;;8.43;7.30;;;14.40;1.00;;;;;;5003392;28;20445;-53
2023/09/16 04:05:20;;;;;;;9.13;8.13;;;14.50;1.00;;;;;;5004337;28;20443;-51
2023/09/16 04:07:46;;;;;;;7.07;6.37;;;14.50;99.90;;;;;;5006646;28;20200;-52
2023/09/16 04:10:12;;;;;;;7.80;6.97;;;14.60;1.00;;;;;;5004810;28;20203;-53
2023/09/16 04:12:38;;;;;;;8.33;7.07;;;14.60;99.90;;;;;;5006909;28;20447;-51
2023/09/16 04:15:04;;;;;;;8.13;7.27;;;14.60;99.90;;;;;;5002448;28;20776;-52
2023/09/16 04:17:30;;;;;;;10.93;8.40;;;14.50;1.00;;;;;;5005198;28;20231;-51
2023/09/16 04:19:55;;;;;;;9.07;7.97;;;14.50;1.00;;;;;;5003583;28;21186;-52
2023/09/16 04:22:21;;;;;;;9.30;8.10;;;14.50;99.90;;;;;;5004764;28;20468;-52
2023/09/16 04:24:47;;;;;;;12.57;7.90;;;14.50;1.00;;;;;;5000941;28;20192;-53
2023/09/16 04:27:12;;;;;;;13.00;7.63;;;14.50;1.00;;;;;;5008401;28;20203;-51
2023/09/16 04:29:38;;;;;;;11.27;8.13;;;14.50;1.00;;;;;;5001642;28;20238;-52
2023/09/16 04:32:04;;;;;;;9.67;8.40;;;14.60;89.10;;;;;;5003671;28;20191;-52
2023/09/16 04:34:29;;;;;;;12.63;8.50;;;14.50;1.00;;;;;;5001294;28;20220;-52
2023/09/16 04:36:55;;;;;;;8.70;7.80;;;14.50;99.90;;;;;;5005180;28;20954;-51
2023/09/16 04:39:24;;;;;;;8.77;7.87;;;14.50;1.00;;;;;;5003585;28;20264;-52
2023/09/16 04:41:53;;;;;;;9.97;8.80;;;14.50;99.90;;;;;;4998980;28;20579;-52
2023/09/16 04:44:22;;;;;;;10.03;7.97;;;14.50;99.90;;;;;;5005356;28;20447;-52
2023/09/16 04:46:48;;;;;;;9.00;8.10;;;14.40;99.90;;;;;;5001010;28;20815;-52
2023/09/16 04:49:14;;;;;;;9.37;7.63;;;14.40;99.90;;;;;;5000603;28;20454;-53
2023/09/16 04:51:39;;;;;;;9.53;7.63;;;14.40;1.00;;;;;;5004619;28;20454;-51
2023/09/16 04:54:07;;;;;;;10.20;8.13;;;14.40;1.00;;;;;;5003530;28;20215;-51
2023/09/16 04:56:36;;;;;;;8.20;7.30;;;14.50;1.00;;;;;;5010112;28;20219;-52
2023/09/16 04:59:01;;;;;;;10.43;9.20;;;14.40;99.90;;;;;;5004219;28;20451;-52
2023/09/16 05:01:29;;;;;;;11.17;9.20;;;14.50;99.90;;;;;;5004348;28;20456;-51
2023/09/16 05:03:55;;;;;;;9.60;8.47;;;14.40;99.90;;;;;;5002162;28;20188;-51
2023/09/16 05:06:20;;;;;;;9.37;7.90;;;14.40;99.90;;;;;;5003920;28;20914;-51
2023/09/16 05:08:46;;;;;;;11.20;8.37;;;14.40;1.00;;;;;;4999346;28;20192;-52
2023/09/16 05:11:13;;;;;;;8.90;8.10;;;14.50;1.00;;;;;;5004871;28;20287;-52
2023/09/16 05:13:39;;;;;;;9.27;7.93;;;14.50;1.00;;;;;;5001410;28;20443;-50
2023/09/16 05:16:05;;;;;;;9.90;8.50;;;14.50;1.00;;;;;;5002060;28;20493;-52
2023/09/16 05:18:30;;;;;;;12.10;9.40;;;14.60;99.90;;;;;;5003382;28;20217;-51
2023/09/16 05:20:56;;;;;;;10.20;7.67;;;14.60;99.90;;;;;;5002065;28;20215;-52
2023/09/16 05:23:23;;;;;;;11.80;9.37;;;14.50;1.00;;;;;;4999698;28;20238;-51
2023/09/16 05:25:49;;;;;;;9.17;8.27;;;14.60;1.00;;;;;;5005527;28;20191;-52
2023/09/16 05:28:15;;;;;;;13.87;8.10;;;14.50;1.00;;;;;;4998672;28;20438;-52
2023/09/16 05:30:44;;;;;;;8.67;7.70;;;14.60;1.00;;;;;;5002638;28;20500;-51
2023/09/16 05:33:10;;;;;;;8.93;7.43;;;14.60;99.90;;;;;;4999891;28;20211;-52
2023/09/16 05:35:37;;;;;;;9.50;7.83;;;14.70;99.90;;;;;;5004023;28;20877;-50
2023/09/16 05:38:03;;;;;;;10.60;9.60;;;14.70;1.00;;;;;;5004481;28;20969;-52
2023/09/16 05:40:29;;;;;;;10.00;8.70;;;14.70;99.90;;;;;;5002381;28;20443;-51
2023/09/16 05:42:55;;;;;;;8.70;7.80;;;14.70;1.00;;;;;;4999297;28;20523;-53
2023/09/16 05:45:20;;;;;;;12.53;8.77;;;14.70;99.90;;;;;;4998541;28;20199;-53
2023/09/16 05:47:48;;;;;;;9.33;8.33;;;14.70;1.00;;;;;;5004761;28;20176;-51
2023/09/16 05:50:14;;;;;;;10.63;8.60;;;14.70;99.90;;;;;;5003024;28;20235;-52
2023/09/16 05:52:39;;;;;;;10.03;8.63;;;14.70;1.00;;;;;;5003772;28;20485;-51
2023/09/16 05:55:05;;;;;;;10.70;7.93;;;14.80;19.70;;;;;;5000792;28;20216;-51
2023/09/16 05:57:31;;;;;;;9.83;8.17;;;14.80;99.90;;;;;;5002646;28;20589;-52
2023/09/16 05:59:56;;;;;;;15.63;8.80;;;14.80;1.00;;;;;;5001332;28;20446;-52
2023/09/16 06:02:22;;;;;;;11.10;8.83;;;14.80;99.90;;;;;;5002737;28;20659;-52
2023/09/16 06:04:49;;;;;;;17.00;9.07;;;14.90;99.90;;;;;;5005415;28;20203;-52
2023/09/16 06:07:15;;;;;;;9.60;8.53;;;14.90;1.00;;;;;;4998312;28;20197;-52
2023/09/16 06:09:41;;;;;;;11.83;9.40;;;14.90;99.90;;;;;;5005055;28;20445;-52
2023/09/16 06:12:07;;;;;;;11.73;8.93;;;14.90;1.00;;;;;;4999839;28;20883;-53
2023/09/16 06:14:33;;;;;;;9.73;7.60;;;14.90;1.00;;;;;;5003884;28;20515;-52
2023/09/16 06:16:58;;;;;;;9.50;8.40;;;15.00;1.00;;;;;;5003252;28;20649;-53
2023/09/16 06:19:26;;;;;;;9.13;8.13;;;15.20;99.90;;;;;;4999090;28;20184;-52
2023/09/16 06:21:52;;;;;;;10.50;7.77;;;15.20;99.90;;;;;;5002586;28;20260;-51
2023/09/16 06:24:18;;;;;;;10.80;8.93;;;15.30;99.90;;;;;;5005269;28;20458;-53
2023/09/16 06:26:43;;;;;;;10.27;9.13;;;15.40;1.00;;;;;;5002674;28;20440;-52
2023/09/16 06:29:09;;;;;;;9.77;8.77;;;15.40;99.90;;;;;;5003282;28;20613;-53
2023/09/16 06:31:34;;;;;;;12.13;9.10;;;15.40;99.90;;;;;;5000554;28;20188;-52
2023/09/16 06:34:00;;;;;;;9.57;8.60;;;15.50;99.90;;;;;;5004934;28;20699;-53
2023/09/16 06:36:26;;;;;;;10.00;8.90;;;15.60;54.10;;;;;;5000261;28;20281;-52
2023/09/16 06:38:51;;;;;;;9.47;8.13;;;15.70;1.00;;;;;;5001627;28;20195;-52
2023/09/16 06:41:17;;;;;;;11.57;8.67;;;15.80;1.00;;;;;;5002424;28;20243;-52
2023/09/16 06:43:43;;;;;;;11.43;9.40;;;15.90;99.90;;;;;;5001819;28;20183;-52
2023/09/16 06:46:08;;;;;;;17.23;8.30;;;15.90;99.90;;;;;;5000609;28;20607;-53
2023/09/16 06:48:34;;;;;;;10.50;7.63;;;16.00;99.90;;;;;;4999114;28;20781;-51
2023/09/16 06:50:59;;;;;;;11.47;9.07;;;16.20;99.90;;;;;;4996421;28;20196;-52
2023/09/16 06:53:25;;;;;;;9.53;8.00;;;16.30;1.00;;;;;;4997616;28;20184;-52
2023/09/16 06:55:50;;;;;;;9.07;8.17;;;16.50;1.00;;;;;;4999667;28;20217;-53
2023/09/16 06:58:20;;;;;;;8.50;7.67;;;16.70;1.00;;;;;;5003735;28;20195;-52
2023/09/16 07:00:47;;;;;;;10.40;7.97;;;17.00;99.90;;;;;;4999310;28;20639;-52
2023/09/16 07:03:13;;;;;;;10.70;7.03;;;17.40;99.90;;;;;;5002788;28;20434;-53
2023/09/16 07:05:39;;;;;;;17.33;8.67;;;17.80;99.90;;;;;;5001857;28;20790;-52
2023/09/16 07:08:05;;;;;;;10.20;8.40;;;18.20;99.90;;;;;;4999702;28;20193;-53
2023/09/16 07:10:30;;;;;;;9.93;7.93;;;18.50;49.50;;;;;;5007343;28;20529;-52
2023/09/16 07:12:56;;;;;;;8.97;7.73;;;18.80;6.40;;;;;;4999603;28;20552;-53
2023/09/16 07:15:22;;;;;;;9.83;7.73;;;19.00;1.00;;;;;;4997529;28;20581;-53
2023/09/16 07:17:48;;;;;;;8.27;6.77;;;19.40;1.00;;;;;;5003716;28;20274;-53
2023/09/16 07:20:13;;;;;;;12.73;7.80;;;19.80;1.00;;;;;;4998247;28;20493;-52
2023/09/16 07:22:39;;;;;;;9.90;7.70;;;20.00;1.00;;;;;;5002898;28;20230;-53
2023/09/16 07:25:06;;;;;;;11.20;8.07;;;20.00;1.00;;;;;;5000626;28;20200;-53
2023/09/16 07:27:32;;;;;;;13.53;7.40;;;20.00;1.00;;;;;;4998985;28;20208;-52
2023/09/16 07:29:58;;;;;;;7.47;6.43;;;20.10;1.00;;;;;;4997492;28;20802;-52
2023/09/16 07:32:24;;;;;;;8.90;6.90;;;20.50;1.00;;;;;;4996652;28;20188;-53
2023/09/16 07:34:49;;;;;;;9.60;7.30;;;21.10;1.00;;;;;;5006145;28;20496;-53
2023/09/16 07:37:15;;;;;;;9.23;7.03;;;21.50;1.00;;;;;;5000225;28;20546;-53
2023/09/16 07:39:41;;;;;;;8.20;7.30;;;21.70;1.00;;;;;;5001227;28;20528;-52
2023/09/16 07:42:06;;;;;;;8.70;7.30;;;22.00;1.00;;;;;;5002477;28;20723;-53
2023/09/16 07:44:32;;;;;;;10.63;6.57;;;22.40;1.00;;;;;;5003457;28;20184;-53
2023/09/16 07:46:57;;;;;;;10.57;7.30;;;22.70;1.00;;;;;;5004112;28;20688;-52
2023/09/16 07:49:23;;;;;;;9.23;6.83;;;23.10;1.00;;;;;;5000249;28;20184;-52
2023/09/16 07:51:49;;;;;;;8.03;6.50;;;23.20;1.00;;;;;;5000901;28;20184;-52
2023/09/16 07:54:15;;;;;;;8.00;6.90;;;23.30;1.00;;;;;;5003361;28;20258;-53
2023/09/16 07:56:41;;;;;;;8.50;6.97;;;23.20;1.00;;;;;;4998535;28;20448;-52
2023/09/16 07:59:07;;;;;;;7.30;6.60;;;23.00;1.00;;;;;;4997473;28;20443;-52
2023/09/16 08:01:32;;;;;;;8.43;6.87;;;22.90;1.00;;;;;;5002983;28;20637;-53
2023/09/16 08:03:58;;;;;;;9.43;7.23;;;22.60;1.00;;;;;;4999996;28;20189;-52
2023/09/16 08:06:26;;;;;;;15.07;7.07;;;22.50;1.00;;;;;;5004860;28;20550;-52
2023/09/16 08:08:52;;;;;;;8.43;6.23;;;22.30;1.00;;;;;;4998020;28;20568;-51
2023/09/16 08:11:17;;;;;;;7.87;7.07;;;21.90;1.00;;;;;;5001988;28;20443;-52
2023/09/16 08:13:43;;;;;;;9.90;6.93;;;21.60;1.00;;;;;;5000116;28;20552;-52
2023/09/16 08:16:09;;;;;;;9.60;7.40;;;21.30;1.00;;;;;;4997193;28;20223;-52
2023/09/16 08:18:34;;;;;;;15.13;7.30;;;21.10;1.00;;;;;;5003737;28;20598;-53
2023/09/16 08:21:01;;;;;;;10.53;7.87;;;21.00;1.00;;;;;;5001069;28;20185;-51
2023/09/16 08:23:26;;;;;;;10.00;6.70;;;20.90;1.00;;;;;;5002615;28;20259;-53
2023/09/16 08:25:52;;;;;;;7.70;6.60;;;20.80;1.00;;;;;;5000117;28;20529;-52
2023/09/16 08:28:17;;;;;;;8.70;6.67;;;20.70;1.00;;;;;;5000133;28;20199;-52
2023/09/16 08:30:43;;;;;;;10.87;6.90;;;20.70;1.00;;;;;;4999434;28;20204;-52
2023/09/16 08:33:09;;;;;;;11.97;6.87;;;20.70;1.00;;;;;;5010107;28;20192;-52
2023/09/16 08:35:35;;;;;;;11.07;6.70;;;20.70;1.00;;;;;;4998022;28;20226;-52
2023/09/16 08:38:02;;;;;;;9.50;7.30;;;20.70;1.00;;;;;;4997429;28;20283;-51
2023/09/16 08:40:31;;;;;;;7.90;6.77;;;20.80;1.00;;;;;;4998226;28;20279;-52
2023/09/16 08:43:17;;;;;;;11.63;7.10;;;20.90;1.00;;;;;;5000883;28;20461;-51
2023/09/16 08:45:48;;;;;;;16.30;7.70;;;21.10;1.00;;;;;;5008444;28;20443;-52
2023/09/16 08:48:20;;;;;;;11.10;7.07;;;21.30;1.00;;;;;;5006347;28;20915;-51
2023/09/16 08:50:49;;;;;;;8.13;7.30;;;21.50;1.00;;;;;;5008076;28;20955;-50
2023/09/16 08:53:16;;;;;;;12.37;6.37;;;21.60;1.00;;;;;;5004594;28;20473;-49
2023/09/16 08:55:42;;;;;;;9.60;7.30;;;21.70;1.00;;;;;;5004046;28;20491;-53
2023/09/16 08:58:09;;;;;;;10.83;7.33;;;21.70;1.00;;;;;;5004471;28;20450;-51
2023/09/16 09:00:36;;;;;;;10.63;7.00;;;21.90;1.00;;;;;;5008919;28;20438;-51
2023/09/16 09:03:02;;;;;;;11.00;7.27;;;21.90;1.00;;;;;;5000865;28;20923;-52
2023/09/16 09:05:29;;;;;;;9.30;7.43;;;22.00;1.00;;;;;;5000149;28;20549;-49
2023/09/16 09:07:54;;;;;;;7.87;6.97;;;21.90;1.00;;;;;;4999098;28;20451;-52
2023/09/16 09:10:20;;;;;;;9.33;6.00;;;22.00;1.00;;;;;;4998924;28;20464;-51
2023/09/16 09:12:46;;;;;;;7.53;6.30;;;22.00;1.00;;;;;;5001638;28;20191;-52
2023/09/16 09:15:14;;;;;;;8.30;6.37;;;22.10;1.00;;;;;;5000627;28;20315;-52
2023/09/16 09:17:50;;;;;;;7.50;6.30;;;22.00;1.00;;;;;;5000780;28;20661;-52
2023/09/16 09:20:23;;;;;;;8.10;6.80;;;21.90;1.00;;;;;;4998922;28;20951;-54
2023/09/16 09:22:50;;;;;;;7.97;6.40;;;21.70;1.00;;;;;;4999629;28;20992;-50
2023/09/16 09:25:23;;;;;;;7.23;5.73;;;21.60;1.00;;;;;;4999007;28;20443;-52
2023/09/16 09:27:50;;;;;;;10.60;6.20;;;21.80;1.00;;;;;;4998901;28;20435;-50
2023/09/16 09:30:19;;;;;;;10.00;6.47;;;22.00;1.00;;;;;;4998955;28;20430;-51
2023/09/16 09:32:45;;;;;;;8.00;6.37;;;22.20;1.00;;;;;;5006236;28;20455;-50
2023/09/16 09:35:11;;;;;;;6.60;5.90;;;22.30;1.00;;;;;;4999387;28;20476;-51
2023/09/16 09:37:38;;;;;;;7.90;6.47;;;22.40;1.00;;;;;;5001810;28;20323;-52
2023/09/16 09:40:06;;;;;;;7.93;5.93;;;22.50;1.00;;;;;;5000139;28;20493;-52
2023/09/16 09:42:31;;;;;;;9.63;6.30;;;22.60;1.00;;;;;;5003766;28;20808;-51
2023/09/16 09:45:02;;;;;;;8.10;6.40;;;22.60;1.00;;;;;;5002135;28;20456;-50
2023/09/16 09:47:29;;;;;;;8.27;6.23;;;22.70;1.00;;;;;;5006193;28;20191;-52
2023/09/16 09:49:55;;;;;;;8.00;6.37;;;22.80;1.00;;;;;;5003703;28;20530;-52
2023/09/16 09:52:21;;;;;;;9.57;5.43;;;23.00;1.00;;;;;;4997868;28;20527;-53
2023/09/16 09:54:52;;;;;;;9.43;6.13;;;23.10;1.00;;;;;;5000116;28;20225;-50
2023/09/16 09:57:18;;;;;;;7.73;5.80;;;23.10;1.00;;;;;;5001966;28;20436;-52
2023/09/16 09:59:43;;;;;;;6.40;5.63;;;23.40;1.00;;;;;;5000473;28;20440;-51
2023/09/16 10:02:09;;;;;;;6.40;5.67;;;23.40;1.00;;;;;;5000804;28;20204;-53
2023/09/16 10:04:35;;;;;;;8.10;4.60;;;23.70;1.00;;;;;;5001961;28;20240;-51
2023/09/16 10:07:01;;;;;;;6.07;5.50;;;24.00;1.00;;;;;;4998698;28;20185;-52
2023/09/16 10:09:27;;;;;;;7.53;5.47;;;24.20;1.00;;;;;;4999685;28;20936;-52
2023/09/16 10:11:52;;;;;;;5.60;4.97;;;24.00;1.00;;;;;;5004625;28;20275;-49
2023/09/16 10:14:19;;;;;;;6.80;6.00;;;24.10;1.00;;;;;;4998455;28;20207;-49
2023/09/16 10:16:46;;;;;;;6.63;5.53;;;24.20;1.00;;;;;;4997925;28;20234;-50
2023/09/16 10:19:12;;;;;;;9.50;6.00;;;24.50;1.00;;;;;;4997533;28;20535;-51
2023/09/16 10:21:39;;;;;;;5.87;5.30;;;24.70;1.00;;;;;;4998299;28;20526;-51
2023/09/16 10:24:05;;;;;;;6.93;5.83;;;24.90;1.00;;;;;;4998000;28;20189;-51
2023/09/16 10:26:31;;;;;;;5.70;4.67;;;25.10;1.00;;;;;;4998761;28;20447;-49
2023/09/16 10:28:58;;;;;;;7.53;6.20;;;25.40;1.00;;;;;;4998187;28;20526;-50
2023/09/16 10:31:27;;;;;;;6.80;5.13;;;25.50;1.00;;;;;;4997521;28;20176;-51
2023/09/16 10:33:53;;;;;;;6.57;5.00;;;25.60;1.00;;;;;;4997602;28;20443;-50
2023/09/16 10:36:21;;;;;;;7.40;4.97;;;26.10;1.00;;;;;;4997934;28;20526;-50
2023/09/16 10:38:48;;;;;;;8.10;5.20;;;26.60;1.00;;;;;;4999355;28;20811;-49
2023/09/16 10:41:16;;;;;;;5.47;4.93;;;27.30;1.00;;;;;;4997784;28;20458;-49
2023/09/16 10:43:46;;;;;;;7.67;5.43;;;28.00;1.00;;;;;;4997895;28;20439;-49
2023/09/16 10:46:12;;;;;;;11.10;5.10;;;28.40;1.00;;;;;;4997635;28;20447;-51
2023/09/16 10:48:38;;;;;;;6.43;5.50;;;28.80;1.00;;;;;;4997863;28;20455;-51
2023/09/16 10:51:16;;;;;;;11.23;5.30;;;29.20;1.00;;;;;;4998168;28;21248;-49
2023/09/16 10:53:44;;;;;;;4.93;4.50;;;29.20;1.00;;;;;;4997502;28;20204;-49
2023/09/16 10:56:29;;;;;;;7.13;5.07;;;29.50;1.00;;;;;;4997416;28;20487;-51
2023/09/16 10:59:08;;;;;;;5.70;4.60;;;29.90;1.00;;;;;;4996977;28;20494;-50
2023/09/16 11:01:37;;;;;;;7.20;4.80;;;30.30;1.00;;;;;;4998608;28;21010;-51
2023/09/16 11:04:09;;;;;;;5.40;4.90;;;30.80;1.00;;;;;;4996700;28;20444;-51
2023/09/16 11:06:35;;;;;;;4.70;4.10;;;31.00;99.90;;;;;;4996856;28;20431;-50
2023/09/16 11:09:02;;;;;;;7.40;4.53;;;31.10;99.90;;;;;;4996908;28;20465;-50
2023/09/16 11:11:28;;;;;;;4.70;4.30;;;31.40;99.90;;;;;;5004737;28;20443;-50
2023/09/16 11:13:54;;;;;;;5.80;3.77;;;31.40;99.90;;;;;;5000899;28;20443;-51
2023/09/16 11:16:20;;;;;;;6.13;4.50;;;31.60;99.90;;;;;;4996917;28;20487;-51
2023/09/16 11:18:49;;;;;;;6.10;4.17;;;31.80;99.90;;;;;;4998913;28;20571;-51
2023/09/16 11:21:15;;;;;;;6.10;4.00;;;32.10;99.90;;;;;;4999710;28;20274;-51
2023/09/16 11:23:43;;;;;;;6.23;4.20;;;32.50;99.90;;;;;;4997947;28;20470;-50
2023/09/16 11:26:09;;;;;;;6.47;4.37;;;32.50;99.90;;;;;;4999430;28;20487;-51
2023/09/16 11:28:35;;;;;;;5.30;4.30;;;32.50;99.90;;;;;;4998476;28;20491;-51
2023/09/16 11:31:03;;;;;;;8.10;4.30;;;32.80;99.90;;;;;;4997517;28;20218;-51
2023/09/16 11:33:33;;;;;;;5.50;3.80;;;33.00;99.90;;;;;;5000422;28;20448;-51
2023/09/16 11:36:14;;;;;;;4.73;4.17;;;33.00;99.90;;;;;;4996280;28;20482;-51
2023/09/16 11:39:08;;;;;;;6.53;4.13;;;32.80;99.90;;;;;;5000897;28;20956;-54
2023/09/16 11:41:34;;;;;;;4.83;4.23;;;32.90;99.90;;;;;;4997360;28;20452;-52
2023/09/16 11:44:00;;;;;;;8.07;3.70;;;32.70;99.90;;;;;;4999738;28;20436;-53
2023/09/16 11:46:26;;;;;;;3.77;3.47;;;32.70;99.90;;;;;;5012530;28;20664;-52
2023/09/16 11:48:54;;;;;;;5.70;3.90;;;32.80;99.90;;;;;;4996117;28;20439;-52
2023/09/16 11:51:23;;;;;;;5.10;4.00;;;32.90;99.90;;;;;;5011367;28;20184;-52
2023/09/16 11:53:51;;;;;;;4.20;3.70;;;32.90;99.90;;;;;;5006264;28;20454;-52
2023/09/16 11:56:18;;;;;;;3.63;3.43;;;33.10;99.90;;;;;;5005343;28;20832;-52
2023/09/16 11:58:45;;;;;;;3.83;3.50;;;32.90;99.90;;;;;;5002633;28;20486;-51
2023/09/16 12:01:18;;;;;;;3.73;3.30;;;33.00;99.90;;;;;;5001090;28;20439;-52
2023/09/16 12:03:44;;;;;;;5.20;3.33;;;33.20;99.90;;;;;;4999928;28;21012;-52
2023/09/16 12:06:10;;;;;;;5.10;3.77;;;33.10;99.90;;;;;;5000119;28;20440;-51
2023/09/16 12:08:37;;;;;;;4.93;3.60;;;33.20;99.90;;;;;;5000297;28;20522;-52
2023/09/16 12:11:06;;;;;;;3.87;3.03;;;33.50;99.90;;;;;;5003360;28;20454;-52
2023/09/16 12:13:32;;;;;;;3.47;3.20;;;33.60;99.90;;;;;;4996719;28;20943;-51
2023/09/16 12:15:58;;;;;;;4.37;3.30;;;33.70;99.90;;;;;;4997608;28;20486;-52
2023/09/16 12:18:24;;;;;;;4.60;3.50;;;33.60;99.90;;;;;;5004555;28;20226;-52
2023/09/16 12:20:53;;;;;;;4.10;3.20;;;33.70;99.90;;;;;;5000260;28;20478;-52
2023/09/16 12:23:19;;;;;;;3.37;3.07;;;33.70;99.90;;;;;;5005081;28;20509;-52
2023/09/16 12:25:45;;;;;;;3.13;2.87;;;33.90;99.90;;;;;;4999767;28;20525;-52
2023/09/16 12:28:16;;;;;;;4.20;3.10;;;34.10;99.90;;;;;;5005421;28;20239;-52
2023/09/16 12:30:43;;;;;;;3.60;3.30;;;33.90;99.90;;;;;;5005611;28;20529;-52
2023/09/16 12:33:09;;;;;;;5.57;3.00;;;34.00;99.90;;;;;;5007487;28;20479;-52
2023/09/16 12:35:39;;;;;;;4.37;2.90;;;34.00;99.90;;;;;;5001650;28;20479;-52
2023/09/16 12:38:05;;;;;;;3.80;3.40;;;33.80;99.90;;;;;;4999887;28;20455;-52
2023/09/16 12:40:32;;;;;;;5.47;3.33;;;33.70;99.90;;;;;;5007646;28;20440;-52
2023/09/16 12:42:58;;;;;;;7.47;3.53;;;33.70;99.90;;;;;;5025091;28;20451;-50
2023/09/16 12:45:25;;;;;;;3.70;3.30;;;33.80;99.90;;;;;;5000444;28;21204;-52
2023/09/16 12:47:51;;;;;;;3.83;2.87;;;33.90;99.90;;;;;;5003242;28;20596;-51